sensor_id;sensor_type;location;lat;lon;timestamp;P1;durP1;ratioP1;P2;durP2;ratioP2
80567;SDS011;69922;45.656;25.586;2023-09-12T00:00:10;9.10;;;6.00;;
80567;SDS011;69922;45.656;25.586;2023-09-12T00:01:37;10.80;;;6.10;;
80567;SDS011;69922;45.656;25.586;2023-09-12T00:02:44;9.90;;;6.20;;
80567;SDS011;69922;45.656;25.586;2023-09-12T00:03:50;10.30;;;6.60;;
80567;SDS011;69922;45.656;25.586;2023-09-12T00:04:56;12.20;;;6.30;;
80567;SDS011;69922;45.656;25.586;2023-09-12T00:06:04;13.40;;;6.80;;
80567;SDS011;69922;45.656;25.586;2023-09-12T00:07:11;13.40;;;6.80;;
80567;SDS011;69922;45.656;25.586;2023-09-12T00:08:17;9.00;;;6.50;;
80567;SDS011;69922;45.656;25.586;2023-09-12T00:09:23;10.20;;;6.40;;
80567;SDS011;69922;45.656;25.586;2023-09-12T00:10:30;10.90;;;6.90;;
80567;SDS011;69922;45.656;25.586;2023-09-12T00:11:36;11.00;;;6.70;;
80567;SDS011;69922;45.656;25.586;2023-09-12T00:12:43;12.70;;;6.80;;
80567;SDS011;69922;45.656;25.586;2023-09-12T00:13:49;10.20;;;6.50;;
80567;SDS011;69922;45.656;25.586;2023-09-12T00:14:56;10.30;;;6.80;;
80567;SDS011;69922;45.656;25.586;2023-09-12T00:16:03;12.00;;;6.70;;
80567;SDS011;69922;45.656;25.586;2023-09-12T00:17:10;12.80;;;7.30;;
80567;SDS011;69922;45.656;25.586;2023-09-12T00:18:16;11.30;;;6.70;;
80567;SDS011;69922;45.656;25.586;2023-09-12T00:19:22;10.70;;;6.40;;
80567;SDS011;69922;45.656;25.586;2023-09-12T00:20:28;9.20;;;6.00;;
80567;SDS011;69922;45.656;25.586;2023-09-12T00:21:35;8.80;;;5.70;;
80567;SDS011;69922;45.656;25.586;2023-09-12T00:22:41;13.00;;;5.60;;
80567;SDS011;69922;45.656;25.586;2023-09-12T00:23:48;16.00;;;6.80;;
80567;SDS011;69922;45.656;25.586;2023-09-12T00:24:54;9.40;;;5.70;;
80567;SDS011;69922;45.656;25.586;2023-09-12T00:26:00;10.80;;;6.40;;
80567;SDS011;69922;45.656;25.586;2023-09-12T00:27:07;9.20;;;6.30;;
80567;SDS011;69922;45.656;25.586;2023-09-12T00:28:14;9.90;;;6.80;;
80567;SDS011;69922;45.656;25.586;2023-09-12T00:29:20;13.10;;;5.90;;
80567;SDS011;69922;45.656;25.586;2023-09-12T00:30:27;9.10;;;6.40;;
80567;SDS011;69922;45.656;25.586;2023-09-12T00:31:34;10.80;;;5.40;;
80567;SDS011;69922;45.656;25.586;2023-09-12T00:32:41;10.60;;;6.40;;
80567;SDS011;69922;45.656;25.586;2023-09-12T00:33:47;11.80;;;6.80;;
80567;SDS011;69922;45.656;25.586;2023-09-12T00:34:55;11.50;;;6.40;;
80567;SDS011;69922;45.656;25.586;2023-09-12T00:36:02;10.10;;;6.00;;
80567;SDS011;69922;45.656;25.586;2023-09-12T00:37:10;8.90;;;5.50;;
80567;SDS011;69922;45.656;25.586;2023-09-12T00:38:16;8.90;;;6.00;;
80567;SDS011;69922;45.656;25.586;2023-09-12T00:39:23;10.60;;;5.40;;
80567;SDS011;69922;45.656;25.586;2023-09-12T00:40:29;12.80;;;6.70;;
80567;SDS011;69922;45.656;25.586;2023-09-12T00:41:35;10.70;;;6.40;;
80567;SDS011;69922;45.656;25.586;2023-09-12T00:42:41;9.70;;;6.00;;
80567;SDS011;69922;45.656;25.586;2023-09-12T00:43:48;8.60;;;6.00;;
80567;SDS011;69922;45.656;25.586;2023-09-12T00:44:55;9.80;;;6.80;;
80567;SDS011;69922;45.656;25.586;2023-09-12T00:46:02;11.80;;;6.10;;
80567;SDS011;69922;45.656;25.586;2023-09-12T00:47:08;9.90;;;6.10;;
80567;SDS011;69922;45.656;25.586;2023-09-12T00:48:17;8.90;;;6.30;;
80567;SDS011;69922;45.656;25.586;2023-09-12T00:49:26;12.40;;;6.50;;
80567;SDS011;69922;45.656;25.586;2023-09-12T00:50:36;10.40;;;6.60;;
80567;SDS011;69922;45.656;25.586;2023-09-12T00:51:45;10.70;;;5.80;;
80567;SDS011;69922;45.656;25.586;2023-09-12T00:52:54;9.90;;;5.30;;
80567;SDS011;69922;45.656;25.586;2023-09-12T00:54:03;9.00;;;5.40;;
80567;SDS011;69922;45.656;25.586;2023-09-12T00:55:10;10.20;;;5.30;;
80567;SDS011;69922;45.656;25.586;2023-09-12T00:56:18;10.30;;;5.60;;
80567;SDS011;69922;45.656;25.586;2023-09-12T00:57:25;8.00;;;6.00;;
80567;SDS011;69922;45.656;25.586;2023-09-12T00:58:32;9.80;;;6.40;;
80567;SDS011;69922;45.656;25.586;2023-09-12T00:59:39;8.30;;;5.80;;
80567;SDS011;69922;45.656;25.586;2023-09-12T01:00:46;8.00;;;5.80;;
80567;SDS011;69922;45.656;25.586;2023-09-12T01:01:52;9.80;;;6.10;;
80567;SDS011;69922;45.656;25.586;2023-09-12T01:02:59;8.40;;;5.80;;
80567;SDS011;69922;45.656;25.586;2023-09-12T01:04:08;10.50;;;6.00;;
80567;SDS011;69922;45.656;25.586;2023-09-12T01:05:35;8.60;;;6.20;;
80567;SDS011;69922;45.656;25.586;2023-09-12T01:06:42;11.70;;;6.20;;
80567;SDS011;69922;45.656;25.586;2023-09-12T01:07:50;9.80;;;5.50;;
80567;SDS011;69922;45.656;25.586;2023-09-12T01:08:57;10.00;;;5.60;;
80567;SDS011;69922;45.656;25.586;2023-09-12T01:10:05;7.20;;;5.50;;
80567;SDS011;69922;45.656;25.586;2023-09-12T01:11:14;9.20;;;5.60;;
80567;SDS011;69922;45.656;25.586;2023-09-12T01:12:22;7.90;;;5.80;;
80567;SDS011;69922;45.656;25.586;2023-09-12T01:13:29;11.70;;;5.70;;
80567;SDS011;69922;45.656;25.586;2023-09-12T01:14:36;9.90;;;6.10;;
80567;SDS011;69922;45.656;25.586;2023-09-12T01:15:42;9.90;;;5.90;;
80567;SDS011;69922;45.656;25.586;2023-09-12T01:16:48;8.80;;;5.70;;
80567;SDS011;69922;45.656;25.586;2023-09-12T01:17:55;9.70;;;6.00;;
80567;SDS011;69922;45.656;25.586;2023-09-12T01:19:03;12.90;;;6.60;;
80567;SDS011;69922;45.656;25.586;2023-09-12T01:20:13;9.10;;;6.10;;
80567;SDS011;69922;45.656;25.586;2023-09-12T01:21:28;10.80;;;5.70;;
80567;SDS011;69922;45.656;25.586;2023-09-12T01:23:03;10.80;;;6.20;;
80567;SDS011;69922;45.656;25.586;2023-09-12T01:26:23;9.60;;;5.60;;
80567;SDS011;69922;45.656;25.586;2023-09-12T01:27:44;8.40;;;5.70;;
80567;SDS011;69922;45.656;25.586;2023-09-12T01:28:54;8.40;;;5.50;;
80567;SDS011;69922;45.656;25.586;2023-09-12T01:30:04;9.60;;;5.80;;
80567;SDS011;69922;45.656;25.586;2023-09-12T01:31:12;9.40;;;5.90;;
80567;SDS011;69922;45.656;25.586;2023-09-12T01:32:19;9.80;;;6.60;;
80567;SDS011;69922;45.656;25.586;2023-09-12T01:33:26;9.30;;;5.90;;
80567;SDS011;69922;45.656;25.586;2023-09-12T01:34:33;8.90;;;5.40;;
80567;SDS011;69922;45.656;25.586;2023-09-12T01:35:39;9.20;;;6.20;;
80567;SDS011;69922;45.656;25.586;2023-09-12T01:36:46;10.60;;;6.00;;
80567;SDS011;69922;45.656;25.586;2023-09-12T01:37:53;9.20;;;6.00;;
80567;SDS011;69922;45.656;25.586;2023-09-12T01:39:00;10.30;;;6.00;;
80567;SDS011;69922;45.656;25.586;2023-09-12T01:40:08;8.00;;;5.70;;
80567;SDS011;69922;45.656;25.586;2023-09-12T01:41:16;10.40;;;5.80;;
80567;SDS011;69922;45.656;25.586;2023-09-12T01:42:24;8.80;;;5.50;;
80567;SDS011;69922;45.656;25.586;2023-09-12T01:43:34;10.20;;;5.80;;
80567;SDS011;69922;45.656;25.586;2023-09-12T01:44:44;11.70;;;6.20;;
80567;SDS011;69922;45.656;25.586;2023-09-12T01:45:54;9.10;;;5.20;;
80567;SDS011;69922;45.656;25.586;2023-09-12T01:47:03;10.60;;;6.30;;
80567;SDS011;69922;45.656;25.586;2023-09-12T01:48:12;10.70;;;5.70;;
80567;SDS011;69922;45.656;25.586;2023-09-12T01:49:22;8.80;;;6.40;;
80567;SDS011;69922;45.656;25.586;2023-09-12T01:50:31;9.90;;;6.20;;
80567;SDS011;69922;45.656;25.586;2023-09-12T01:51:37;9.90;;;6.10;;
80567;SDS011;69922;45.656;25.586;2023-09-12T01:52:45;10.90;;;5.90;;
80567;SDS011;69922;45.656;25.586;2023-09-12T01:53:52;7.10;;;5.40;;
80567;SDS011;69922;45.656;25.586;2023-09-12T01:55:00;8.70;;;5.50;;
80567;SDS011;69922;45.656;25.586;2023-09-12T01:56:08;13.10;;;6.40;;
80567;SDS011;69922;45.656;25.586;2023-09-12T01:57:15;10.50;;;5.60;;
80567;SDS011;69922;45.656;25.586;2023-09-12T01:58:26;9.30;;;5.50;;
80567;SDS011;69922;45.656;25.586;2023-09-12T01:59:33;7.70;;;5.00;;
80567;SDS011;69922;45.656;25.586;2023-09-12T02:00:40;9.30;;;5.10;;
80567;SDS011;69922;45.656;25.586;2023-09-12T02:01:46;7.40;;;5.10;;
80567;SDS011;69922;45.656;25.586;2023-09-12T02:02:53;7.40;;;5.20;;
80567;SDS011;69922;45.656;25.586;2023-09-12T02:03:59;8.20;;;5.40;;
80567;SDS011;69922;45.656;25.586;2023-09-12T02:05:07;7.20;;;5.40;;
80567;SDS011;69922;45.656;25.586;2023-09-12T02:06:18;8.20;;;5.50;;
80567;SDS011;69922;45.656;25.586;2023-09-12T02:07:25;8.40;;;5.50;;
80567;SDS011;69922;45.656;25.586;2023-09-12T02:08:34;10.60;;;5.60;;
80567;SDS011;69922;45.656;25.586;2023-09-12T02:09:42;8.80;;;5.30;;
80567;SDS011;69922;45.656;25.586;2023-09-12T02:10:49;9.70;;;5.60;;
80567;SDS011;69922;45.656;25.586;2023-09-12T02:11:55;9.20;;;5.40;;
80567;SDS011;69922;45.656;25.586;2023-09-12T02:13:02;9.20;;;5.80;;
80567;SDS011;69922;45.656;25.586;2023-09-12T02:14:09;8.70;;;6.00;;
80567;SDS011;69922;45.656;25.586;2023-09-12T02:15:15;10.40;;;5.20;;
80567;SDS011;69922;45.656;25.586;2023-09-12T02:16:22;11.10;;;5.60;;
80567;SDS011;69922;45.656;25.586;2023-09-12T02:17:29;8.50;;;5.30;;
80567;SDS011;69922;45.656;25.586;2023-09-12T02:18:36;7.70;;;5.60;;
80567;SDS011;69922;45.656;25.586;2023-09-12T02:19:42;10.80;;;5.80;;
80567;SDS011;69922;45.656;25.586;2023-09-12T02:20:51;9.70;;;5.90;;
80567;SDS011;69922;45.656;25.586;2023-09-12T02:21:57;11.20;;;6.10;;
80567;SDS011;69922;45.656;25.586;2023-09-12T02:23:04;8.60;;;5.80;;
80567;SDS011;69922;45.656;25.586;2023-09-12T02:24:11;9.90;;;6.10;;
80567;SDS011;69922;45.656;25.586;2023-09-12T02:25:21;10.80;;;6.00;;
80567;SDS011;69922;45.656;25.586;2023-09-12T02:26:28;8.80;;;5.30;;
80567;SDS011;69922;45.656;25.586;2023-09-12T02:27:35;10.30;;;5.60;;
80567;SDS011;69922;45.656;25.586;2023-09-12T02:28:42;8.60;;;5.40;;
80567;SDS011;69922;45.656;25.586;2023-09-12T02:29:49;9.70;;;5.50;;
80567;SDS011;69922;45.656;25.586;2023-09-12T02:30:55;8.40;;;5.40;;
80567;SDS011;69922;45.656;25.586;2023-09-12T02:32:01;9.20;;;5.70;;
80567;SDS011;69922;45.656;25.586;2023-09-12T02:33:09;11.10;;;5.80;;
80567;SDS011;69922;45.656;25.586;2023-09-12T02:34:15;8.30;;;5.90;;
80567;SDS011;69922;45.656;25.586;2023-09-12T02:35:22;9.50;;;6.00;;
80567;SDS011;69922;45.656;25.586;2023-09-12T02:36:28;9.90;;;6.70;;
80567;SDS011;69922;45.656;25.586;2023-09-12T02:37:36;12.70;;;5.90;;
80567;SDS011;69922;45.656;25.586;2023-09-12T02:38:43;9.40;;;6.10;;
80567;SDS011;69922;45.656;25.586;2023-09-12T02:39:50;8.10;;;6.30;;
80567;SDS011;69922;45.656;25.586;2023-09-12T02:40:56;9.40;;;5.90;;
80567;SDS011;69922;45.656;25.586;2023-09-12T02:42:04;9.10;;;5.50;;
80567;SDS011;69922;45.656;25.586;2023-09-12T02:43:10;9.30;;;6.30;;
80567;SDS011;69922;45.656;25.586;2023-09-12T02:44:17;9.10;;;5.80;;
80567;SDS011;69922;45.656;25.586;2023-09-12T02:45:23;10.10;;;5.70;;
80567;SDS011;69922;45.656;25.586;2023-09-12T02:46:29;9.20;;;5.60;;
80567;SDS011;69922;45.656;25.586;2023-09-12T02:47:36;9.00;;;5.90;;
80567;SDS011;69922;45.656;25.586;2023-09-12T02:48:42;10.60;;;5.70;;
80567;SDS011;69922;45.656;25.586;2023-09-12T02:49:49;9.70;;;5.80;;
80567;SDS011;69922;45.656;25.586;2023-09-12T02:50:56;8.90;;;5.60;;
80567;SDS011;69922;45.656;25.586;2023-09-12T02:52:03;9.70;;;6.20;;
80567;SDS011;69922;45.656;25.586;2023-09-12T02:53:10;11.20;;;5.90;;
80567;SDS011;69922;45.656;25.586;2023-09-12T02:54:16;11.20;;;6.70;;
80567;SDS011;69922;45.656;25.586;2023-09-12T02:55:23;12.90;;;7.70;;
80567;SDS011;69922;45.656;25.586;2023-09-12T02:56:30;10.10;;;6.60;;
80567;SDS011;69922;45.656;25.586;2023-09-12T02:57:36;11.10;;;7.70;;
80567;SDS011;69922;45.656;25.586;2023-09-12T02:58:45;9.90;;;6.40;;
80567;SDS011;69922;45.656;25.586;2023-09-12T02:59:52;12.60;;;6.30;;
80567;SDS011;69922;45.656;25.586;2023-09-12T03:00:59;7.70;;;5.50;;
80567;SDS011;69922;45.656;25.586;2023-09-12T03:03:12;9.00;;;6.00;;
80567;SDS011;69922;45.656;25.586;2023-09-12T03:04:19;9.90;;;6.30;;
80567;SDS011;69922;45.656;25.586;2023-09-12T03:05:26;14.20;;;6.50;;
80567;SDS011;69922;45.656;25.586;2023-09-12T03:06:33;10.40;;;6.50;;
80567;SDS011;69922;45.656;25.586;2023-09-12T03:07:40;9.50;;;5.80;;
80567;SDS011;69922;45.656;25.586;2023-09-12T03:08:47;11.90;;;6.40;;
80567;SDS011;69922;45.656;25.586;2023-09-12T03:09:54;9.90;;;6.00;;
80567;SDS011;69922;45.656;25.586;2023-09-12T03:11:01;9.00;;;5.80;;
80567;SDS011;69922;45.656;25.586;2023-09-12T03:12:08;9.60;;;5.80;;
80567;SDS011;69922;45.656;25.586;2023-09-12T03:13:15;9.80;;;5.90;;
80567;SDS011;69922;45.656;25.586;2023-09-12T03:14:21;11.00;;;5.70;;
80567;SDS011;69922;45.656;25.586;2023-09-12T03:15:28;11.60;;;6.80;;
80567;SDS011;69922;45.656;25.586;2023-09-12T03:16:39;10.50;;;5.80;;
80567;SDS011;69922;45.656;25.586;2023-09-12T03:17:45;10.90;;;5.50;;
80567;SDS011;69922;45.656;25.586;2023-09-12T03:18:51;12.30;;;5.50;;
80567;SDS011;69922;45.656;25.586;2023-09-12T03:19:57;10.20;;;5.70;;
80567;SDS011;69922;45.656;25.586;2023-09-12T03:21:04;11.40;;;6.00;;
80567;SDS011;69922;45.656;25.586;2023-09-12T03:22:11;9.90;;;6.10;;
80567;SDS011;69922;45.656;25.586;2023-09-12T03:23:18;11.70;;;6.10;;
80567;SDS011;69922;45.656;25.586;2023-09-12T03:24:25;10.40;;;6.00;;
80567;SDS011;69922;45.656;25.586;2023-09-12T03:25:37;9.90;;;6.00;;
80567;SDS011;69922;45.656;25.586;2023-09-12T03:26:44;11.90;;;6.90;;
80567;SDS011;69922;45.656;25.586;2023-09-12T03:27:50;10.20;;;6.40;;
80567;SDS011;69922;45.656;25.586;2023-09-12T03:28:56;12.30;;;6.60;;
80567;SDS011;69922;45.656;25.586;2023-09-12T03:30:03;10.70;;;5.80;;
80567;SDS011;69922;45.656;25.586;2023-09-12T03:31:12;6.90;;;5.30;;
80567;SDS011;69922;45.656;25.586;2023-09-12T03:32:19;9.70;;;5.50;;
80567;SDS011;69922;45.656;25.586;2023-09-12T03:33:25;9.30;;;5.50;;
80567;SDS011;69922;45.656;25.586;2023-09-12T03:34:33;7.40;;;5.50;;
80567;SDS011;69922;45.656;25.586;2023-09-12T03:35:42;12.20;;;7.10;;
80567;SDS011;69922;45.656;25.586;2023-09-12T03:37:53;12.70;;;7.00;;
80567;SDS011;69922;45.656;25.586;2023-09-12T03:39:00;12.50;;;6.80;;
80567;SDS011;69922;45.656;25.586;2023-09-12T03:40:11;10.70;;;6.80;;
80567;SDS011;69922;45.656;25.586;2023-09-12T03:41:18;11.70;;;6.80;;
80567;SDS011;69922;45.656;25.586;2023-09-12T03:42:29;10.30;;;6.50;;
80567;SDS011;69922;45.656;25.586;2023-09-12T03:43:45;10.40;;;6.30;;
80567;SDS011;69922;45.656;25.586;2023-09-12T03:44:51;9.30;;;6.50;;
80567;SDS011;69922;45.656;25.586;2023-09-12T03:45:58;11.70;;;6.40;;
80567;SDS011;69922;45.656;25.586;2023-09-12T03:47:05;8.80;;;6.70;;
80567;SDS011;69922;45.656;25.586;2023-09-12T03:48:12;9.90;;;6.30;;
80567;SDS011;69922;45.656;25.586;2023-09-12T03:49:19;13.90;;;6.50;;
80567;SDS011;69922;45.656;25.586;2023-09-12T03:50:26;11.30;;;6.30;;
80567;SDS011;69922;45.656;25.586;2023-09-12T03:51:33;10.00;;;6.00;;
80567;SDS011;69922;45.656;25.586;2023-09-12T03:52:43;10.80;;;6.80;;
80567;SDS011;69922;45.656;25.586;2023-09-12T03:53:49;12.20;;;6.20;;
80567;SDS011;69922;45.656;25.586;2023-09-12T03:54:55;11.90;;;6.40;;
80567;SDS011;69922;45.656;25.586;2023-09-12T03:56:02;9.90;;;7.00;;
80567;SDS011;69922;45.656;25.586;2023-09-12T03:57:08;11.30;;;7.30;;
80567;SDS011;69922;45.656;25.586;2023-09-12T03:58:15;10.60;;;6.70;;
80567;SDS011;69922;45.656;25.586;2023-09-12T03:59:21;11.20;;;6.90;;
80567;SDS011;69922;45.656;25.586;2023-09-12T04:00:27;14.60;;;7.60;;
80567;SDS011;69922;45.656;25.586;2023-09-12T04:01:34;12.90;;;7.50;;
80567;SDS011;69922;45.656;25.586;2023-09-12T04:02:41;15.30;;;7.90;;
80567;SDS011;69922;45.656;25.586;2023-09-12T04:03:47;14.10;;;7.50;;
80567;SDS011;69922;45.656;25.586;2023-09-12T04:04:54;16.00;;;7.20;;
80567;SDS011;69922;45.656;25.586;2023-09-12T04:06:04;10.60;;;7.30;;
80567;SDS011;69922;45.656;25.586;2023-09-12T04:07:10;11.40;;;7.30;;
80567;SDS011;69922;45.656;25.586;2023-09-12T04:08:17;10.20;;;6.40;;
80567;SDS011;69922;45.656;25.586;2023-09-12T04:09:23;14.20;;;7.50;;
80567;SDS011;69922;45.656;25.586;2023-09-12T04:10:31;11.40;;;6.80;;
80567;SDS011;69922;45.656;25.586;2023-09-12T04:11:38;13.40;;;8.00;;
80567;SDS011;69922;45.656;25.586;2023-09-12T04:12:52;14.00;;;7.90;;
80567;SDS011;69922;45.656;25.586;2023-09-12T04:13:58;14.80;;;8.50;;
80567;SDS011;69922;45.656;25.586;2023-09-12T04:15:06;11.20;;;7.20;;
80567;SDS011;69922;45.656;25.586;2023-09-12T04:16:13;11.90;;;7.40;;
80567;SDS011;69922;45.656;25.586;2023-09-12T04:17:20;11.70;;;8.30;;
80567;SDS011;69922;45.656;25.586;2023-09-12T04:18:26;14.10;;;7.90;;
80567;SDS011;69922;45.656;25.586;2023-09-12T04:19:33;15.60;;;8.20;;
80567;SDS011;69922;45.656;25.586;2023-09-12T04:20:41;13.30;;;8.30;;
80567;SDS011;69922;45.656;25.586;2023-09-12T04:21:48;13.70;;;8.00;;
80567;SDS011;69922;45.656;25.586;2023-09-12T04:22:54;11.40;;;8.10;;
80567;SDS011;69922;45.656;25.586;2023-09-12T04:24:01;14.70;;;8.40;;
80567;SDS011;69922;45.656;25.586;2023-09-12T04:25:08;14.60;;;7.90;;
80567;SDS011;69922;45.656;25.586;2023-09-12T04:26:15;14.20;;;8.90;;
80567;SDS011;69922;45.656;25.586;2023-09-12T04:27:22;13.00;;;8.40;;
80567;SDS011;69922;45.656;25.586;2023-09-12T04:28:28;14.00;;;8.40;;
80567;SDS011;69922;45.656;25.586;2023-09-12T04:29:34;14.60;;;8.00;;
80567;SDS011;69922;45.656;25.586;2023-09-12T04:30:41;18.50;;;9.70;;
80567;SDS011;69922;45.656;25.586;2023-09-12T04:31:50;14.80;;;8.70;;
80567;SDS011;69922;45.656;25.586;2023-09-12T04:33:04;16.40;;;9.10;;
80567;SDS011;69922;45.656;25.586;2023-09-12T04:34:10;13.40;;;8.90;;
80567;SDS011;69922;45.656;25.586;2023-09-12T04:35:17;12.60;;;8.90;;
80567;SDS011;69922;45.656;25.586;2023-09-12T04:36:25;14.10;;;9.10;;
80567;SDS011;69922;45.656;25.586;2023-09-12T04:37:31;15.40;;;8.50;;
80567;SDS011;69922;45.656;25.586;2023-09-12T04:38:37;13.50;;;8.80;;
80567;SDS011;69922;45.656;25.586;2023-09-12T04:39:45;15.00;;;8.40;;
80567;SDS011;69922;45.656;25.586;2023-09-12T04:40:54;14.90;;;9.10;;
80567;SDS011;69922;45.656;25.586;2023-09-12T04:42:02;17.00;;;8.50;;
80567;SDS011;69922;45.656;25.586;2023-09-12T04:43:09;15.30;;;8.90;;
80567;SDS011;69922;45.656;25.586;2023-09-12T04:44:15;13.90;;;9.30;;
80567;SDS011;69922;45.656;25.586;2023-09-12T04:45:22;17.00;;;10.30;;
80567;SDS011;69922;45.656;25.586;2023-09-12T04:46:29;15.20;;;9.60;;
80567;SDS011;69922;45.656;25.586;2023-09-12T04:47:36;15.80;;;9.30;;
80567;SDS011;69922;45.656;25.586;2023-09-12T04:48:43;11.90;;;8.70;;
80567;SDS011;69922;45.656;25.586;2023-09-12T04:49:50;13.20;;;8.00;;
80567;SDS011;69922;45.656;25.586;2023-09-12T04:50:57;14.20;;;8.60;;
80567;SDS011;69922;45.656;25.586;2023-09-12T04:52:04;15.60;;;8.00;;
80567;SDS011;69922;45.656;25.586;2023-09-12T04:53:11;13.20;;;8.10;;
80567;SDS011;69922;45.656;25.586;2023-09-12T04:54:18;12.40;;;8.40;;
80567;SDS011;69922;45.656;25.586;2023-09-12T04:55:24;13.20;;;8.10;;
80567;SDS011;69922;45.656;25.586;2023-09-12T04:56:31;14.80;;;7.40;;
80567;SDS011;69922;45.656;25.586;2023-09-12T04:57:38;18.10;;;8.70;;
80567;SDS011;69922;45.656;25.586;2023-09-12T04:58:47;14.10;;;8.20;;
80567;SDS011;69922;45.656;25.586;2023-09-12T04:59:53;13.10;;;8.70;;
80567;SDS011;69922;45.656;25.586;2023-09-12T05:01:01;14.70;;;8.70;;
80567;SDS011;69922;45.656;25.586;2023-09-12T05:02:09;13.80;;;8.60;;
80567;SDS011;69922;45.656;25.586;2023-09-12T05:03:15;15.30;;;9.20;;
80567;SDS011;69922;45.656;25.586;2023-09-12T05:04:22;17.00;;;9.40;;
80567;SDS011;69922;45.656;25.586;2023-09-12T05:05:29;12.80;;;8.20;;
80567;SDS011;69922;45.656;25.586;2023-09-12T05:06:38;17.10;;;8.30;;
80567;SDS011;69922;45.656;25.586;2023-09-12T05:07:45;15.20;;;9.90;;
80567;SDS011;69922;45.656;25.586;2023-09-12T05:08:51;17.10;;;9.20;;
80567;SDS011;69922;45.656;25.586;2023-09-12T05:09:58;14.30;;;8.00;;
80567;SDS011;69922;45.656;25.586;2023-09-12T05:11:04;21.10;;;9.20;;
80567;SDS011;69922;45.656;25.586;2023-09-12T05:12:13;16.10;;;9.50;;
80567;SDS011;69922;45.656;25.586;2023-09-12T05:13:21;14.20;;;9.10;;
80567;SDS011;69922;45.656;25.586;2023-09-12T05:14:28;12.90;;;10.30;;
80567;SDS011;69922;45.656;25.586;2023-09-12T05:15:34;15.30;;;8.80;;
80567;SDS011;69922;45.656;25.586;2023-09-12T05:16:44;11.70;;;8.50;;
80567;SDS011;69922;45.656;25.586;2023-09-12T05:17:50;13.10;;;8.30;;
80567;SDS011;69922;45.656;25.586;2023-09-12T05:18:57;11.90;;;8.90;;
80567;SDS011;69922;45.656;25.586;2023-09-12T05:20:06;17.20;;;8.40;;
80567;SDS011;69922;45.656;25.586;2023-09-12T05:21:14;14.60;;;8.60;;
80567;SDS011;69922;45.656;25.586;2023-09-12T05:22:20;14.20;;;8.30;;
80567;SDS011;69922;45.656;25.586;2023-09-12T05:23:26;14.70;;;8.70;;
80567;SDS011;69922;45.656;25.586;2023-09-12T05:24:33;12.30;;;7.70;;
80567;SDS011;69922;45.656;25.586;2023-09-12T05:25:40;14.30;;;8.60;;
80567;SDS011;69922;45.656;25.586;2023-09-12T05:26:47;12.90;;;8.20;;
80567;SDS011;69922;45.656;25.586;2023-09-12T05:27:54;12.60;;;8.60;;
80567;SDS011;69922;45.656;25.586;2023-09-12T05:29:01;15.30;;;8.70;;
80567;SDS011;69922;45.656;25.586;2023-09-12T05:30:10;13.80;;;9.10;;
80567;SDS011;69922;45.656;25.586;2023-09-12T05:31:18;15.20;;;8.70;;
80567;SDS011;69922;45.656;25.586;2023-09-12T05:32:24;15.10;;;8.70;;
80567;SDS011;69922;45.656;25.586;2023-09-12T05:33:31;15.40;;;7.60;;
80567;SDS011;69922;45.656;25.586;2023-09-12T05:34:39;13.90;;;8.40;;
80567;SDS011;69922;45.656;25.586;2023-09-12T05:35:45;14.70;;;9.10;;
80567;SDS011;69922;45.656;25.586;2023-09-12T05:36:52;14.50;;;7.50;;
80567;SDS011;69922;45.656;25.586;2023-09-12T05:37:58;15.80;;;8.10;;
80567;SDS011;69922;45.656;25.586;2023-09-12T05:39:05;17.30;;;7.80;;
80567;SDS011;69922;45.656;25.586;2023-09-12T05:40:11;15.20;;;8.60;;
80567;SDS011;69922;45.656;25.586;2023-09-12T05:41:18;16.60;;;8.80;;
80567;SDS011;69922;45.656;25.586;2023-09-12T05:42:24;15.10;;;9.10;;
80567;SDS011;69922;45.656;25.586;2023-09-12T05:43:30;15.60;;;9.00;;
80567;SDS011;69922;45.656;25.586;2023-09-12T05:44:37;18.10;;;9.20;;
80567;SDS011;69922;45.656;25.586;2023-09-12T05:45:44;13.60;;;8.60;;
80567;SDS011;69922;45.656;25.586;2023-09-12T05:46:50;14.00;;;9.30;;
80567;SDS011;69922;45.656;25.586;2023-09-12T05:47:58;18.10;;;8.70;;
80567;SDS011;69922;45.656;25.586;2023-09-12T05:49:05;13.30;;;8.20;;
80567;SDS011;69922;45.656;25.586;2023-09-12T05:50:13;14.80;;;9.30;;
80567;SDS011;69922;45.656;25.586;2023-09-12T05:51:20;20.00;;;9.20;;
80567;SDS011;69922;45.656;25.586;2023-09-12T05:52:26;15.70;;;9.20;;
80567;SDS011;69922;45.656;25.586;2023-09-12T05:53:33;16.90;;;8.80;;
80567;SDS011;69922;45.656;25.586;2023-09-12T05:54:39;15.00;;;8.60;;
80567;SDS011;69922;45.656;25.586;2023-09-12T05:55:47;15.90;;;9.90;;
80567;SDS011;69922;45.656;25.586;2023-09-12T05:56:53;19.30;;;9.40;;
80567;SDS011;69922;45.656;25.586;2023-09-12T05:58:00;11.50;;;9.20;;
80567;SDS011;69922;45.656;25.586;2023-09-12T05:59:10;19.40;;;9.10;;
80567;SDS011;69922;45.656;25.586;2023-09-12T06:00:17;16.30;;;8.90;;
80567;SDS011;69922;45.656;25.586;2023-09-12T06:01:23;15.90;;;9.70;;
80567;SDS011;69922;45.656;25.586;2023-09-12T06:02:30;14.30;;;8.50;;
80567;SDS011;69922;45.656;25.586;2023-09-12T06:03:38;14.70;;;9.40;;
80567;SDS011;69922;45.656;25.586;2023-09-12T06:04:45;14.90;;;9.20;;
80567;SDS011;69922;45.656;25.586;2023-09-12T06:05:52;14.70;;;8.50;;
80567;SDS011;69922;45.656;25.586;2023-09-12T06:06:59;13.20;;;9.00;;
80567;SDS011;69922;45.656;25.586;2023-09-12T06:08:06;15.80;;;8.20;;
80567;SDS011;69922;45.656;25.586;2023-09-12T06:09:13;13.10;;;8.70;;
80567;SDS011;69922;45.656;25.586;2023-09-12T06:10:21;13.20;;;8.00;;
80567;SDS011;69922;45.656;25.586;2023-09-12T06:11:28;13.10;;;8.80;;
80567;SDS011;69922;45.656;25.586;2023-09-12T06:12:36;16.70;;;9.50;;
80567;SDS011;69922;45.656;25.586;2023-09-12T06:13:43;13.10;;;8.30;;
80567;SDS011;69922;45.656;25.586;2023-09-12T06:14:51;15.30;;;9.10;;
80567;SDS011;69922;45.656;25.586;2023-09-12T06:16:00;15.90;;;9.40;;
80567;SDS011;69922;45.656;25.586;2023-09-12T06:17:06;14.00;;;9.90;;
80567;SDS011;69922;45.656;25.586;2023-09-12T06:18:13;14.70;;;8.40;;
80567;SDS011;69922;45.656;25.586;2023-09-12T06:19:19;16.10;;;8.60;;
80567;SDS011;69922;45.656;25.586;2023-09-12T06:20:25;14.20;;;8.20;;
80567;SDS011;69922;45.656;25.586;2023-09-12T06:21:32;15.30;;;8.70;;
80567;SDS011;69922;45.656;25.586;2023-09-12T06:22:39;12.80;;;9.00;;
80567;SDS011;69922;45.656;25.586;2023-09-12T06:23:47;14.00;;;9.00;;
80567;SDS011;69922;45.656;25.586;2023-09-12T06:25:11;11.60;;;8.70;;
80567;SDS011;69922;45.656;25.586;2023-09-12T06:26:18;12.60;;;8.90;;
80567;SDS011;69922;45.656;25.586;2023-09-12T06:27:25;14.00;;;9.00;;
80567;SDS011;69922;45.656;25.586;2023-09-12T06:28:31;15.50;;;9.20;;
80567;SDS011;69922;45.656;25.586;2023-09-12T06:29:38;16.20;;;9.20;;
80567;SDS011;69922;45.656;25.586;2023-09-12T06:30:45;17.00;;;8.90;;
80567;SDS011;69922;45.656;25.586;2023-09-12T06:31:51;15.60;;;8.90;;
80567;SDS011;69922;45.656;25.586;2023-09-12T06:33:00;17.00;;;9.20;;
80567;SDS011;69922;45.656;25.586;2023-09-12T06:34:08;14.00;;;9.10;;
80567;SDS011;69922;45.656;25.586;2023-09-12T06:35:15;15.50;;;9.10;;
80567;SDS011;69922;45.656;25.586;2023-09-12T06:36:21;16.80;;;9.60;;
80567;SDS011;69922;45.656;25.586;2023-09-12T06:37:29;15.50;;;9.60;;
80567;SDS011;69922;45.656;25.586;2023-09-12T06:38:36;15.90;;;9.10;;
80567;SDS011;69922;45.656;25.586;2023-09-12T06:39:43;13.10;;;9.50;;
80567;SDS011;69922;45.656;25.586;2023-09-12T06:40:49;14.30;;;8.60;;